createdAt,value
2022-09-13T00:01:22.243Z,99.90
2022-09-13T00:03:48.810Z,99.90
2022-09-13T00:06:18.906Z,99.90
2022-09-13T00:08:46.320Z,99.90
2022-09-13T00:11:24.192Z,99.90
2022-09-13T00:13:51.468Z,99.90
2022-09-13T00:16:24.147Z,99.90
2022-09-13T00:18:51.482Z,99.90
2022-09-13T00:21:21.063Z,99.90
2022-09-13T00:23:51.443Z,99.90
2022-09-13T00:26:23.712Z,99.90
2022-09-13T00:28:57.013Z,99.90
2022-09-13T00:31:27.347Z,99.90
2022-09-13T00:33:54.291Z,99.90
2022-09-13T00:36:20.992Z,99.90
2022-09-13T00:38:47.503Z,99.90
2022-09-13T00:41:17.664Z,99.90
2022-09-13T00:43:52.727Z,99.90
2022-09-13T00:47:24.278Z,99.90
2022-09-13T00:50:00.797Z,99.90
2022-09-13T00:52:31.858Z,99.90
2022-09-13T00:55:12.744Z,99.90
2022-09-13T00:57:41.326Z,99.90
2022-09-13T01:00:17.004Z,99.90
2022-09-13T01:02:58.052Z,99.90
2022-09-13T01:05:38.216Z,99.90
2022-09-13T01:08:15.247Z,99.90
2022-09-13T01:10:44.306Z,99.90
2022-09-13T01:13:23.670Z,99.90
2022-09-13T01:15:51.248Z,99.90
2022-09-13T01:18:18.469Z,99.90
2022-09-13T01:26:48.258Z,99.90
2022-09-13T01:31:06.992Z,99.90
2022-09-13T01:34:12.426Z,99.90
2022-09-13T01:38:05.780Z,99.90
2022-09-13T01:41:21.576Z,99.90
2022-09-13T01:45:55.574Z,99.90
2022-09-13T01:50:22.073Z,99.90
2022-09-13T01:53:07.958Z,99.90
2022-09-13T01:56:04.350Z,99.90
2022-09-13T01:58:50.000Z,99.90
2022-09-13T02:01:28.715Z,99.90
2022-09-13T02:05:44.547Z,99.90
2022-09-13T02:08:33.605Z,99.90
2022-09-13T02:11:16.592Z,99.90
2022-09-13T02:14:37.561Z,99.90
2022-09-13T02:17:24.632Z,99.90
2022-09-13T02:20:30.532Z,99.90
2022-09-13T02:23:02.002Z,99.90
2022-09-13T02:25:35.434Z,99.90
2022-09-13T02:28:08.954Z,99.90
2022-09-13T02:30:40.974Z,99.90
2022-09-13T02:33:25.963Z,99.90
2022-09-13T02:36:05.823Z,99.90
2022-09-13T02:38:55.232Z,99.90
2022-09-13T02:41:43.176Z,99.90
2022-09-13T02:44:42.860Z,99.90
2022-09-13T02:47:59.967Z,99.90
2022-09-13T02:54:43.024Z,99.90
2022-09-13T02:57:41.881Z,99.90
2022-09-13T03:00:09.747Z,99.90
2022-09-13T03:02:39.940Z,99.90
2022-09-13T03:05:07.083Z,99.90
2022-09-13T03:07:33.617Z,99.90
2022-09-13T03:10:07.887Z,99.90
2022-09-13T03:15:44.915Z,99.90
2022-09-13T03:20:02.853Z,99.90
2022-09-13T03:23:31.774Z,99.90
2022-09-13T03:27:08.891Z,99.90
2022-09-13T03:30:01.813Z,99.90
2022-09-13T03:33:01.392Z,99.90
2022-09-13T03:37:23.765Z,99.90
2022-09-13T03:40:11.855Z,99.90
2022-09-13T03:44:03.065Z,99.90
2022-09-13T03:46:42.598Z,99.90
2022-09-13T03:49:16.551Z,99.90
2022-09-13T03:51:49.996Z,99.90
2022-09-13T03:54:29.039Z,99.90
2022-09-13T03:57:21.259Z,99.90
2022-09-13T03:59:54.872Z,99.90
2022-09-13T04:02:24.004Z,99.90
2022-09-13T04:04:51.281Z,99.90
2022-09-13T04:07:21.751Z,99.90
2022-09-13T04:09:51.263Z,99.90
2022-09-13T04:12:18.386Z,99.90
2022-09-13T04:14:45.136Z,99.90
2022-09-13T04:17:12.387Z,99.90
2022-09-13T04:19:39.147Z,99.90
2022-09-13T04:22:05.648Z,99.90
2022-09-13T04:24:32.402Z,99.90
2022-09-13T04:27:00.615Z,99.90
2022-09-13T04:29:27.102Z,99.90
2022-09-13T04:31:54.999Z,99.90
2022-09-13T04:34:22.392Z,99.90
2022-09-13T04:36:51.724Z,99.90
2022-09-13T04:39:19.503Z,99.90
2022-09-13T04:41:48.105Z,99.90
2022-09-13T04:44:16.747Z,99.90
2022-09-13T04:46:47.440Z,99.90
2022-09-13T04:49:15.189Z,99.90
2022-09-13T04:51:41.708Z,99.90
2022-09-13T04:54:14.981Z,99.90
2022-09-13T04:56:46.336Z,99.90
2022-09-13T04:59:13.099Z,99.90
2022-09-13T05:01:40.589Z,99.90
2022-09-13T05:04:08.757Z,99.90
2022-09-13T05:06:35.563Z,99.90
2022-09-13T05:09:02.437Z,99.90
2022-09-13T05:11:29.707Z,99.90
2022-09-13T05:13:59.214Z,99.90
2022-09-13T05:16:30.721Z,99.90
2022-09-13T05:18:57.658Z,99.90
2022-09-13T05:21:24.815Z,99.90
2022-09-13T05:23:53.313Z,99.90
2022-09-13T05:26:21.818Z,99.90
2022-09-13T05:28:49.065Z,99.90
2022-09-13T05:31:29.757Z,99.90
2022-09-13T05:34:03.309Z,99.90
2022-09-13T05:36:29.905Z,99.90
2022-09-13T05:39:12.570Z,99.90
2022-09-13T05:41:45.632Z,99.90
2022-09-13T05:44:13.568Z,99.90
2022-09-13T05:46:41.939Z,99.90
2022-09-13T05:49:08.437Z,99.90
2022-09-13T05:51:35.694Z,99.90
2022-09-13T05:54:02.154Z,99.90
2022-09-13T05:56:30.220Z,99.90
2022-09-13T05:58:57.461Z,99.90
2022-09-13T06:01:28.790Z,99.90
2022-09-13T06:03:58.480Z,99.90
2022-09-13T06:06:25.541Z,99.90
2022-09-13T06:08:54.032Z,99.90
2022-09-13T06:11:20.840Z,99.90
2022-09-13T06:13:47.317Z,99.90
2022-09-13T06:16:15.894Z,99.90
2022-09-13T06:18:43.316Z,99.90
2022-09-13T06:21:16.995Z,99.90
2022-09-13T06:23:48.974Z,99.90
2022-09-13T06:26:18.732Z,99.90
2022-09-13T06:28:54.831Z,99.90
2022-09-13T06:31:25.044Z,99.90
2022-09-13T06:33:59.125Z,99.90
2022-09-13T06:36:26.377Z,99.90
2022-09-13T06:38:52.885Z,99.90
2022-09-13T06:41:22.730Z,99.90
2022-09-13T06:43:58.233Z,99.90
2022-09-13T06:46:27.678Z,99.90
2022-09-13T06:48:55.060Z,99.90
2022-09-13T06:51:24.571Z,99.90
2022-09-13T06:53:52.642Z,99.90
2022-09-13T06:56:22.900Z,99.90
2022-09-13T06:58:54.047Z,99.90
2022-09-13T07:01:24.946Z,99.90
2022-09-13T07:04:23.014Z,99.90
2022-09-13T07:06:50.277Z,99.90
2022-09-13T07:09:20.814Z,99.90
2022-09-13T07:11:50.297Z,99.90
2022-09-13T07:14:24.469Z,99.90
2022-09-13T07:16:51.919Z,99.90
2022-09-13T07:19:25.736Z,99.90
2022-09-13T07:21:53.631Z,99.90
2022-09-13T07:24:21.708Z,99.90
2022-09-13T07:26:49.146Z,99.90
2022-09-13T07:29:21.862Z,99.90
2022-09-13T07:31:54.081Z,99.90
2022-09-13T07:34:25.750Z,99.90
2022-09-13T07:36:52.849Z,99.90
2022-09-13T07:39:22.675Z,99.90
2022-09-13T07:41:50.856Z,99.90
2022-09-13T07:44:17.333Z,99.90
2022-09-13T07:46:43.909Z,99.90
2022-09-13T07:49:17.470Z,99.90
2022-09-13T07:51:44.993Z,99.90
2022-09-13T07:54:15.707Z,99.90
2022-09-13T07:56:43.199Z,99.90
2022-09-13T07:59:17.465Z,99.90
2022-09-13T08:01:49.864Z,99.90
2022-09-13T08:04:24.686Z,99.90
2022-09-13T08:06:51.204Z,99.90
2022-09-13T08:09:18.024Z,99.90
2022-09-13T08:11:52.104Z,99.90
2022-09-13T08:14:21.627Z,99.90
2022-09-13T08:16:48.190Z,99.90
2022-09-13T08:19:18.176Z,99.90
2022-09-13T08:21:45.931Z,99.50
2022-09-13T08:24:20.638Z,99.60
2022-09-13T08:26:47.587Z,98.80
2022-09-13T08:29:15.460Z,99.50
2022-09-13T08:31:42.046Z,98.80
2022-09-13T08:34:17.308Z,98.90
2022-09-13T08:36:44.100Z,98.00
2022-09-13T08:39:14.222Z,97.90
2022-09-13T08:45:07.652Z,98.40
2022-09-13T08:48:03.822Z,98.20
2022-09-13T08:50:34.109Z,97.30
2022-09-13T08:54:16.870Z,96.40
2022-09-13T08:58:49.088Z,96.40
2022-09-13T09:04:29.381Z,96.80
2022-09-13T09:07:14.157Z,95.70
2022-09-13T09:10:25.679Z,95.70
2022-09-13T09:13:51.941Z,95.50
2022-09-13T09:17:34.521Z,94.50
2022-09-13T09:20:47.831Z,95.00
2022-09-13T09:23:27.249Z,94.80
2022-09-13T09:26:18.844Z,93.90
2022-09-13T09:29:32.844Z,93.90
2022-09-13T09:34:55.480Z,94.00
2022-09-13T09:37:29.495Z,94.10
2022-09-13T09:40:06.875Z,94.00
2022-09-13T09:42:46.858Z,95.40
2022-09-13T09:45:39.118Z,94.00
2022-09-13T09:48:14.896Z,94.40
2022-09-13T09:50:53.855Z,93.80
2022-09-13T09:53:40.480Z,94.10
2022-09-13T09:56:54.689Z,94.30
2022-09-13T09:59:33.087Z,94.00
2022-09-13T10:02:07.068Z,93.30
2022-09-13T10:04:35.183Z,93.40
2022-09-13T10:08:07.896Z,93.50
2022-09-13T10:10:53.485Z,92.90
2022-09-13T10:13:23.361Z,93.10
2022-09-13T10:16:27.165Z,93.30
2022-09-13T10:18:53.776Z,94.00
2022-09-13T10:21:26.700Z,93.90
2022-09-13T10:24:18.295Z,93.30
2022-09-13T10:26:45.873Z,92.90
2022-09-13T10:29:17.983Z,93.80
2022-09-13T10:31:49.332Z,92.70
2022-09-13T10:34:30.270Z,93.20
2022-09-13T10:37:26.180Z,94.30
2022-09-13T10:40:19.031Z,93.70
2022-09-13T10:42:58.777Z,93.10
2022-09-13T10:45:30.650Z,93.40
2022-09-13T10:48:15.784Z,93.60
2022-09-13T10:51:15.460Z,93.50
2022-09-13T10:53:42.681Z,93.20
2022-09-13T10:56:30.309Z,93.40
2022-09-13T10:59:30.007Z,93.30
2022-09-13T11:04:56.104Z,93.90
2022-09-13T11:09:21.042Z,92.90
2022-09-13T11:15:12.874Z,91.70
2022-09-13T11:21:41.415Z,92.10
2022-09-13T11:24:46.993Z,92.10
2022-09-13T11:30:18.455Z,92.20
2022-09-13T11:35:21.201Z,92.40
2022-09-13T11:42:11.014Z,92.40
2022-09-13T11:48:56.648Z,92.20
2022-09-13T11:53:14.252Z,92.10
2022-09-13T11:56:08.880Z,91.90
2022-09-13T11:58:49.717Z,92.50
2022-09-13T12:01:39.542Z,92.40
2022-09-13T12:04:30.543Z,92.00
2022-09-13T12:07:12.993Z,91.70
2022-09-13T12:09:54.568Z,91.80
2022-09-13T12:12:26.210Z,91.60
2022-09-13T12:15:13.159Z,91.90
2022-09-13T12:17:57.523Z,92.00
2022-09-13T12:20:44.714Z,91.90
2022-09-13T12:23:32.708Z,92.40
2022-09-13T12:26:25.904Z,92.10
2022-09-13T12:29:00.188Z,92.00
2022-09-13T12:31:30.999Z,92.10
2022-09-13T12:34:00.180Z,92.10
2022-09-13T12:37:24.246Z,92.10
2022-09-13T12:44:50.881Z,91.90
2022-09-13T12:47:58.825Z,92.30
2022-09-13T12:52:58.533Z,92.00
2022-09-13T12:57:33.046Z,92.30
2022-09-13T13:00:21.158Z,92.30
2022-09-13T13:05:53.057Z,91.90
2022-09-13T13:08:29.911Z,92.70
2022-09-13T13:11:13.290Z,92.80
2022-09-13T13:15:52.306Z,92.50
2022-09-13T13:18:30.113Z,92.20
2022-09-13T13:21:23.993Z,92.40
2022-09-13T13:24:38.300Z,92.00
2022-09-13T13:27:37.779Z,92.40
2022-09-13T13:31:39.726Z,93.00
2022-09-13T13:34:51.752Z,92.80
2022-09-13T13:37:33.309Z,92.50
2022-09-13T13:40:26.104Z,93.00
2022-09-13T13:43:33.986Z,94.20
2022-09-13T13:49:45.631Z,92.80
2022-09-13T13:53:04.903Z,93.20
2022-09-13T13:55:48.726Z,93.50
2022-09-13T13:59:50.003Z,93.60
2022-09-13T14:02:24.898Z,93.00
2022-09-13T14:06:02.641Z,94.10
2022-09-13T14:10:21.301Z,94.10
2022-09-13T14:16:01.611Z,93.70
2022-09-13T14:20:20.374Z,93.70
2022-09-13T14:22:47.308Z,93.30
2022-09-13T14:25:24.684Z,93.20
2022-09-13T14:27:58.358Z,92.60
2022-09-13T14:30:35.823Z,92.70
2022-09-13T14:33:05.277Z,93.00
2022-09-13T14:35:40.856Z,93.10
2022-09-13T14:38:59.278Z,93.00
2022-09-13T14:41:37.751Z,93.20
2022-09-13T14:44:28.351Z,93.30
2022-09-13T14:49:04.735Z,93.30
2022-09-13T14:51:47.076Z,93.40
2022-09-13T14:54:24.757Z,93.80
2022-09-13T14:56:59.074Z,93.70
2022-09-13T14:59:44.612Z,93.70
2022-09-13T15:02:26.766Z,93.40
2022-09-13T15:04:57.634Z,93.80
2022-09-13T15:07:31.898Z,93.60
2022-09-13T15:10:27.591Z,93.60
2022-09-13T15:13:10.357Z,93.80
2022-09-13T15:15:41.595Z,92.90
2022-09-13T15:18:35.583Z,92.70
2022-09-13T15:21:17.344Z,92.50
2022-09-13T15:23:50.554Z,93.00
2022-09-13T15:26:23.262Z,92.30
2022-09-13T15:29:03.399Z,92.90
2022-09-13T15:31:34.219Z,92.90
2022-09-13T15:36:11.838Z,93.80
2022-09-13T15:40:46.677Z,92.90
2022-09-13T15:43:13.484Z,93.50
2022-09-13T15:45:40.147Z,93.30
2022-09-13T15:48:27.458Z,93.70
2022-09-13T15:51:13.073Z,93.90
2022-09-13T15:53:42.587Z,94.00
2022-09-13T15:56:14.701Z,93.80
2022-09-13T15:58:41.142Z,93.10
2022-09-13T16:01:13.626Z,93.40
2022-09-13T16:03:40.412Z,93.70
2022-09-13T16:06:10.033Z,93.40
2022-09-13T16:08:39.830Z,93.10
2022-09-13T16:11:07.327Z,93.60
2022-09-13T16:13:35.374Z,94.50
2022-09-13T16:16:04.288Z,95.00
2022-09-13T16:18:31.512Z,94.50
2022-09-13T16:20:58.283Z,94.90
2022-09-13T16:23:25.086Z,94.80
2022-09-13T16:25:57.770Z,94.80
2022-09-13T16:28:24.260Z,95.10
2022-09-13T16:30:51.349Z,97.60
2022-09-13T16:33:19.011Z,97.60
2022-09-13T16:35:46.331Z,97.80
2022-09-13T16:38:13.109Z,98.50
2022-09-13T16:40:44.278Z,99.10
2022-09-13T16:43:11.998Z,99.30
2022-09-13T16:45:40.804Z,99.20
2022-09-13T16:48:08.293Z,99.90
2022-09-13T16:50:38.395Z,99.90
2022-09-13T16:53:04.901Z,99.90
2022-09-13T16:55:31.953Z,99.90
2022-09-13T16:57:58.442Z,99.90
2022-09-13T17:00:27.841Z,99.90
2022-09-13T17:02:55.888Z,99.90
2022-09-13T17:05:23.823Z,99.90
2022-09-13T17:07:51.919Z,99.90
2022-09-13T17:10:19.308Z,99.90
2022-09-13T17:12:45.834Z,99.90
2022-09-13T17:15:12.508Z,99.90
2022-09-13T17:17:39.002Z,99.90
2022-09-13T17:20:11.258Z,99.90
2022-09-13T17:22:37.853Z,99.90
2022-09-13T17:25:07.165Z,99.90
2022-09-13T17:27:33.978Z,99.90
2022-09-13T17:30:01.625Z,99.90
2022-09-13T17:32:28.132Z,99.90
2022-09-13T17:34:54.586Z,99.90
2022-09-13T17:37:21.028Z,99.90
2022-09-13T17:39:47.954Z,99.90
2022-09-13T17:42:14.496Z,99.90
2022-09-13T17:44:40.964Z,99.90
2022-09-13T17:47:07.568Z,99.90
2022-09-13T17:49:34.139Z,99.90
2022-09-13T17:52:01.458Z,99.90
2022-09-13T17:54:27.987Z,99.90
2022-09-13T17:56:54.460Z,99.90
2022-09-13T17:59:21.854Z,99.90
2022-09-13T18:01:53.827Z,99.90
2022-09-13T18:04:22.744Z,99.90
2022-09-13T18:06:51.818Z,99.90
2022-09-13T18:09:18.787Z,99.90
2022-09-13T18:11:45.557Z,99.90
2022-09-13T18:14:15.169Z,99.90
2022-09-13T18:16:42.264Z,99.90
2022-09-13T18:19:08.919Z,99.90
2022-09-13T18:21:35.405Z,99.90
2022-09-13T18:24:02.599Z,99.90
2022-09-13T18:26:31.907Z,99.90
2022-09-13T18:29:02.068Z,99.90
2022-09-13T18:31:30.708Z,99.90
2022-09-13T18:34:07.240Z,99.90
2022-09-13T18:36:35.487Z,99.90
2022-09-13T18:39:04.417Z,99.90
2022-09-13T18:41:35.438Z,99.90
2022-09-13T18:44:04.186Z,99.90
2022-09-13T18:46:31.954Z,99.90
2022-09-13T18:48:59.265Z,99.90
2022-09-13T18:51:41.504Z,99.90
2022-09-13T18:54:12.849Z,99.90
2022-09-13T18:56:39.546Z,99.90
2022-09-13T18:59:07.555Z,99.90
2022-09-13T19:01:42.877Z,99.90
2022-09-13T19:04:27.609Z,99.90
2022-09-13T19:06:57.667Z,99.90
2022-09-13T19:09:24.342Z,99.90
2022-09-13T19:11:53.786Z,99.90
2022-09-13T19:14:26.890Z,99.90
2022-09-13T19:16:56.471Z,99.90
2022-09-13T19:19:23.917Z,99.90
2022-09-13T19:21:51.608Z,99.90
2022-09-13T19:24:19.891Z,99.90
2022-09-13T19:26:50.465Z,99.90
2022-09-13T19:29:22.533Z,99.90
2022-09-13T19:31:51.596Z,99.90
2022-09-13T19:34:21.574Z,99.90
2022-09-13T19:36:51.451Z,99.90
2022-09-13T19:39:18.095Z,99.90
2022-09-13T19:41:44.611Z,99.90
2022-09-13T19:44:14.825Z,99.90
2022-09-13T19:46:42.461Z,99.90
2022-09-13T19:49:16.507Z,99.90
2022-09-13T19:51:48.790Z,99.90
2022-09-13T19:54:18.068Z,99.90
2022-09-13T19:56:44.561Z,99.90
2022-09-13T19:59:15.088Z,99.90
2022-09-13T20:01:44.720Z,99.90
2022-09-13T20:04:15.562Z,99.90
2022-09-13T20:06:45.309Z,99.90
2022-09-13T20:09:14.765Z,99.90
2022-09-13T20:11:44.612Z,99.90
2022-09-13T20:14:13.295Z,99.90
2022-09-13T20:16:41.635Z,99.90
2022-09-13T20:19:39.048Z,99.90
2022-09-13T20:22:08.663Z,99.90
2022-09-13T20:24:35.237Z,99.90
2022-09-13T20:27:01.735Z,99.90
2022-09-13T20:29:28.223Z,99.90
2022-09-13T20:31:54.731Z,99.90
2022-09-13T20:34:21.255Z,99.90
2022-09-13T20:36:47.754Z,99.90
2022-09-13T20:39:14.902Z,99.90
2022-09-13T20:41:43.533Z,99.90
2022-09-13T20:44:10.937Z,99.90
2022-09-13T20:46:39.532Z,99.90
2022-09-13T20:49:11.535Z,99.90
2022-09-13T20:51:38.194Z,99.90
2022-09-13T20:54:05.726Z,99.90
2022-09-13T20:56:33.516Z,99.90
2022-09-13T20:59:00.527Z,99.90
2022-09-13T21:01:30.402Z,99.90
2022-09-13T21:03:58.123Z,99.90
2022-09-13T21:06:27.982Z,99.90
2022-09-13T21:08:58.981Z,99.90
2022-09-13T21:11:29.670Z,99.90
2022-09-13T21:14:00.368Z,99.90
2022-09-13T21:16:30.359Z,99.90
2022-09-13T21:18:57.041Z,99.90
2022-09-13T21:21:29.339Z,99.90
2022-09-13T21:23:57.367Z,99.90
2022-09-13T21:26:26.676Z,99.90
2022-09-13T21:28:54.942Z,99.90
2022-09-13T21:31:25.649Z,99.90
2022-09-13T21:34:04.215Z,99.90
2022-09-13T21:36:33.909Z,99.90
2022-09-13T21:39:01.560Z,99.90
2022-09-13T21:41:28.224Z,99.90
2022-09-13T21:43:54.810Z,99.90
2022-09-13T21:46:30.977Z,99.90
2022-09-13T21:49:02.637Z,99.90
2022-09-13T21:51:36.284Z,99.90
2022-09-13T21:54:06.434Z,99.90
2022-09-13T21:56:40.137Z,99.90
2022-09-13T21:59:19.205Z,99.90
2022-09-13T22:01:50.481Z,99.90
2022-09-13T22:04:23.896Z,99.90
2022-09-13T22:06:52.633Z,99.90
2022-09-13T22:09:22.245Z,99.90
2022-09-13T22:11:49.129Z,99.90
2022-09-13T22:14:19.101Z,99.90
2022-09-13T22:16:46.077Z,99.90
2022-09-13T22:19:25.716Z,99.90
2022-09-13T22:22:02.246Z,99.90
2022-09-13T22:24:34.996Z,99.90
2022-09-13T22:27:01.898Z,99.90
2022-09-13T22:29:29.239Z,99.90
2022-09-13T22:31:55.776Z,99.90
2022-09-13T22:34:24.984Z,99.90
2022-09-13T22:36:54.523Z,99.90
2022-09-13T22:39:20.999Z,99.90
2022-09-13T22:41:47.507Z,99.90
2022-09-13T22:44:14.752Z,99.90
2022-09-13T22:46:44.408Z,99.90
2022-09-13T22:49:16.852Z,99.90
2022-09-13T22:51:44.960Z,99.90
2022-09-13T22:54:13.231Z,99.90
2022-09-13T22:56:40.664Z,99.90
2022-09-13T22:59:16.274Z,99.90
2022-09-13T23:01:43.970Z,99.90
2022-09-13T23:04:11.538Z,99.90
2022-09-13T23:06:38.487Z,99.90
2022-09-13T23:09:07.728Z,99.90
2022-09-13T23:11:39.193Z,99.90
2022-09-13T23:14:09.850Z,99.90
2022-09-13T23:16:48.283Z,99.90
2022-09-13T23:19:16.783Z,99.90
2022-09-13T23:21:43.881Z,99.90
2022-09-13T23:24:17.063Z,99.90
2022-09-13T23:26:45.479Z,99.90
2022-09-13T23:29:15.949Z,99.90
2022-09-13T23:31:43.362Z,99.90
2022-09-13T23:34:11.842Z,99.90
2022-09-13T23:36:41.187Z,99.90
2022-09-13T23:39:13.095Z,99.90
2022-09-13T23:41:39.553Z,99.90
2022-09-13T23:44:06.087Z,99.90
2022-09-13T23:46:33.073Z,99.90
2022-09-13T23:48:59.569Z,99.90
2022-09-13T23:51:27.554Z,99.90
2022-09-13T23:53:56.339Z,99.90
2022-09-13T23:56:28.445Z,99.90
2022-09-13T23:58:57.781Z,99.90
